Latest Weather Observations for Winton

IDQ60801

Issued at 3:02 am EST Thursday 30 March 2017 (issued every 30 minutes, with the page automatically refreshed every 10 minutes)

About weather observations | Map of weather stations | Latest weather observations for QLD | Other Formats
Station Details ID: 037039 Name: WINTON AIRPORT Lat: -22.36 Lon: 143.08 Height: 192.2 m
Data from the previous 72 hours. | See also: Recent months at Winton
Date/Time
EST
Temp
°C
App
Temp
°C
Dew
Point
°C
Rel
Hum
%
Delta-T
°C
Wind Press
QNH
hPa
Press
MSL
hPa
Rain since
9am
mm
Dir  Spd
km/h
Gust
km/h
Spd
kts
Gust
kts
30/03:00am 24.4 26.1 18.6 70 3.7 NNE 7 6 4 3 - 1005.9 0.0
30/02:30am 24.4 26.2 18.3 69 3.9 N 6 6 3 3 1007.2 1005.9 0.0
30/02:00am 24.7 26.3 18.2 67 4.1 NE 7 7 4 4 1007.1 1005.8 0.0
30/01:30am 25.4 27.1 18.6 66 4.4 ENE 7 9 4 5 1007.2 1005.9 0.0
30/01:00am 26.1 27.2 18.8 64 4.7 E 11 13 6 7 1007.3 1006.0 0.0
30/12:30am 26.6 27.8 19.0 63 4.9 E 11 15 6 8 1007.2 1005.9 0.0
30/12:00am 27.3 28.0 18.9 60 5.4 E 13 17 7 9 1007.3 1006.0 0.0
 
Date/Time
EST
Temp
°C
App
Temp
°C
Dew
Point
°C
Rel
Hum
%
Delta-T
°C
Wind Press
QNH
hPa
Press
MSL
hPa
Rain since
9am
mm
Dir  Spd
km/h
Gust
km/h
Spd
kts
Gust
kts
29/11:30pm 27.7 28.9 19.0 59 5.6 ESE 11 15 6 8 1007.6 1006.3 0.0
29/11:00pm 28.4 28.2 19.3 57 6.0 ESE 19 26 10 14 1007.5 1006.2 0.0
29/10:30pm 28.8 28.3 19.1 55 6.3 ESE 20 28 11 15 1007.2 1005.9 0.0
29/10:00pm 29.4 29.1 19.1 54 6.7 E 19 24 10 13 1007.0 1005.7 0.0
29/09:30pm 29.9 29.9 19.0 52 7.1 ESE 17 24 9 13 1007.2 1005.9 0.0
29/09:00pm 30.3 29.4 19.0 50 7.4 ESE 22 32 12 17 1006.5 1005.2 0.0
29/08:30pm 30.6 30.2 19.0 50 7.6 ESE 19 26 10 14 1006.1 1004.8 0.0
29/08:00pm 31.1 29.5 19.1 48 7.9 ESE 26 35 14 19 1005.4 1004.0 0.0
29/07:30pm 31.6 30.6 18.9 47 8.3 ESE 22 33 12 18 1004.6 1003.3 0.0
29/07:00pm 32.4 28.6 18.9 44 8.9 ESE 37 50 20 27 1004.1 1002.8 0.0
29/06:36pm 34.6 33.2 16.9 35 11.4 SSE 20 50 11 27 1003.3 1002.0 0.0
29/06:30pm 37.0 36.3 15.5 28 13.7 SSE 13 20 7 11 1002.9 1001.6 0.0
29/06:00pm 37.8 34.5 15.0 26 14.5 S 26 37 14 20 1002.5 1001.2 0.0
29/05:30pm 38.3 34.3 14.2 24 15.1 S 28 43 15 23 1002.1 1000.8 0.0
29/05:00pm 38.8 36.2 13.9 22 15.6 S 20 32 11 17 1001.9 1000.6 0.0
29/04:30pm 39.1 34.4 14.2 23 15.7 SSE 32 54 17 29 1001.9 1000.6 0.0
29/04:21pm 38.9 35.1 14.7 24 15.3 S 28 54 15 29 1001.8 1000.5 0.0
29/04:00pm 38.2 33.8 14.1 24 15.1 S 30 44 16 24 1001.7 1000.4 0.0
29/03:41pm 39.2 35.3 14.3 23 15.7 S 28 46 15 25 1001.7 1000.4 0.0
29/03:30pm 38.9 35.1 14.7 24 15.3 S 28 41 15 22 1001.8 1000.5 0.0
29/03:00pm 39.0 35.0 14.1 23 15.7 S 28 44 15 24 1002.1 1000.8 0.0
29/02:30pm 38.4 35.1 14.9 25 14.9 S 26 41 14 22 1002.5 1001.2 0.0
29/02:00pm 37.8 35.5 15.6 27 14.2 S 22 35 12 19 1002.8 1001.5 0.0
29/01:30pm 37.5 34.9 15.9 28 13.8 SSE 24 41 13 22 1003.5 1002.2 0.0
29/01:00pm 37.8 34.1 16.1 27 14.0 SSE 30 43 16 23 1003.9 1002.6 0.0
29/12:30pm 37.2 35.1 16.2 29 13.5 SSE 22 35 12 19 1004.5 1003.2 0.0
29/12:00pm 36.0 33.5 16.2 31 12.7 SSE 24 41 13 22 1005.2 1003.8 0.0
29/11:30am 35.5 32.5 16.8 33 12.0 SSE 28 41 15 22 1005.9 1004.6 0.0
29/11:00am 34.8 31.9 17.1 35 11.4 SSE 28 39 15 21 1006.3 1005.0 0.0
29/10:30am 34.4 30.8 16.3 34 11.5 SE 30 41 16 22 1006.7 1005.4 0.0
29/10:00am 33.5 30.4 17.6 38 10.3 SE 30 43 16 23 1006.8 1005.5 0.0
29/09:30am 31.7 29.8 19.3 47 8.2 SE 28 43 15 23 1007.1 1005.8 0.0
29/09:00am 31.1 28.6 19.8 51 7.5 SE 32 41 17 22 1007.1 1005.8 0.0
29/08:30am 30.6 28.6 19.9 52 7.1 SE 30 39 16 21 1007.0 1005.7 0.0
29/08:00am 29.6 28.6 19.6 55 6.6 SSE 24 37 13 20 1006.9 1005.6 0.0
29/07:30am 28.0 30.0 19.2 58 5.7 S 7 13 4 7 1006.5 1005.2 0.0
29/07:00am 26.5 28.4 18.9 63 4.9 SSE 7 11 4 6 1006.3 1005.0 0.0
29/06:30am 26.4 27.9 19.0 63 4.8 S 9 11 5 6 1005.9 1004.6 0.0
29/06:00am 25.9 27.5 18.3 63 4.9 S 7 9 4 5 1005.7 1004.3 0.0
29/05:30am 26.2 27.8 18.3 61 5.0 S 7 9 4 5 1005.6 1004.2 0.0
29/05:00am 26.6 27.9 18.5 61 5.2 SSE 9 11 5 6 1005.3 1003.9 0.0
29/04:30am 26.9 28.6 18.5 60 5.4 SSE 7 9 4 5 1005.3 1003.9 0.0
29/04:00am 27.5 29.3 18.8 59 5.6 SSE 7 11 4 6 1005.3 1003.9 0.0
29/03:30am 27.6 28.8 18.3 57 6.0 SSE 9 13 5 7 1005.2 1003.8 0.0
29/03:00am 27.2 28.2 16.8 53 6.5 SSE 7 15 4 8 1005.2 1003.8 0.0
29/02:30am 27.9 28.4 17.4 52 6.7 SE 11 15 6 8 1005.3 1003.9 0.0
29/02:00am 27.0 27.1 15.4 49 7.1 SE 9 11 5 6 1005.4 1004.0 0.0
29/01:30am 27.4 27.5 15.4 48 7.4 E 9 11 5 6 1005.5 1004.1 0.0
29/01:00am 27.4 26.9 14.8 46 7.7 ESE 11 13 6 7 1005.5 1004.1 0.0
29/12:30am 28.1 27.0 14.3 42 8.4 ESE 13 15 7 8 1005.7 1004.3 0.0
29/12:00am 29.5 28.0 15.2 41 8.8 ESE 17 20 9 11 1005.7 1004.3 0.0
 
Date/Time
EST
Temp
°C
App
Temp
°C
Dew
Point
°C
Rel
Hum
%
Delta-T
°C
Wind Press
QNH
hPa
Press
MSL
hPa
Rain since
9am
mm
Dir  Spd
km/h
Gust
km/h
Spd
kts
Gust
kts
28/11:30pm 30.0 28.5 15.3 41 9.1 ESE 17 20 9 11 1005.8 1004.5 0.0
28/11:00pm 30.8 29.4 15.6 39 9.5 ESE 17 20 9 11 1006.0 1004.7 0.0
28/10:30pm 30.7 30.0 15.5 39 9.5 SE 13 17 7 9 1006.1 1004.8 0.0
28/10:00pm 31.3 30.2 15.3 38 10.0 SE 15 19 8 10 1006.3 1005.0 0.0
28/09:30pm 30.6 29.6 14.7 38 9.8 SE 13 15 7 8 1006.3 1005.0 0.0
28/09:00pm 31.0 30.8 14.6 37 10.1 SE 9 11 5 6 1006.1 1004.8 0.0
28/08:30pm 32.2 31.7 14.8 35 10.8 SE 11 15 6 8 1005.7 1004.3 0.0
28/08:00pm 33.3 32.0 14.8 32 11.5 ESE 15 20 8 11 1005.6 1004.2 0.0
28/07:30pm 34.0 31.3 15.5 33 11.6 ESE 24 33 13 18 1005.4 1004.0 0.0
28/07:00pm 34.9 32.6 14.7 29 12.6 ESE 20 32 11 17 1004.8 1003.5 0.0
28/06:30pm 36.5 31.8 12.0 23 14.8 SSE 28 39 15 21 1004.4 1003.1 0.0
28/06:00pm 36.9 31.6 12.4 23 14.9 SE 32 44 17 24 1004.4 1003.1 0.0
28/05:30pm 37.4 30.4 11.4 21 15.6 SE 39 52 21 28 1004.2 1002.9 0.0
28/05:01pm 38.2 31.4 12.0 21 15.9 SE 39 59 21 32 1003.9 1002.6 0.0
28/05:00pm 38.3 31.5 12.1 21 16.0 SE 39 50 21 27 1003.9 1002.6 0.0
28/04:30pm 39.0 32.6 12.0 20 16.5 SSE 37 54 20 29 1003.8 1002.5 0.0
28/04:00pm 39.6 32.3 11.7 19 17.0 SE 41 59 22 32 1003.8 1002.5 0.0
28/03:52pm 39.3 33.1 11.4 19 16.9 SSE 35 59 19 32 1003.8 1002.5 0.0
28/03:30pm 39.7 33.5 12.5 20 16.7 SE 37 50 20 27 1004.1 1002.8 0.0
28/03:00pm 39.3 33.1 11.4 19 16.9 SE 35 52 19 28 1004.3 1003.0 0.0
28/02:30pm 39.9 33.8 11.9 19 17.1 SSE 35 54 19 29 1004.5 1003.2 0.0
28/02:29pm 40.4 34.9 12.3 19 17.3 SSE 33 54 18 29 1004.5 1003.2 0.0
28/02:00pm 39.3 33.7 12.2 20 16.6 SE 33 46 18 25 1004.9 1003.6 0.0
28/01:49pm 39.0 34.1 12.7 21 16.2 SSE 30 50 16 27 1005.2 1003.8 0.0
28/01:30pm 38.4 33.2 12.9 22 15.7 SE 32 46 17 25 1005.5 1004.1 0.0
28/01:00pm 38.3 34.2 12.8 22 15.7 SSE 26 39 14 21 1006.2 1004.9 0.0
28/12:30pm 36.9 33.3 14.2 25 14.2 SSE 26 43 14 23 1006.9 1005.6 0.0
28/12:00pm 36.7 33.8 15.2 27 13.6 SE 24 35 13 19 1007.4 1006.1 0.0
28/11:30am 35.1 32.5 14.9 29 12.7 SE 22 39 12 21 1008.1 1006.8 0.0
28/11:00am 36.0 33.5 16.2 31 12.7 SE 24 35 13 19 1008.4 1007.1 0.0
28/10:30am 34.1 31.5 16.0 34 11.5 ESE 24 33 13 18 1008.9 1007.6 0.0
28/10:00am 32.7 30.2 16.1 37 10.5 ESE 24 35 13 19 1009.3 1008.0 0.0
28/09:30am 31.2 29.2 16.4 41 9.3 ESE 22 30 12 16 1009.5 1008.2 0.0
28/09:00am 31.6 29.4 16.0 39 9.8 ESE 22 32 12 17 1009.6 1008.3 0.0
28/08:30am 30.8 29.0 15.6 39 9.5 ESE 19 22 10 12 1009.5 1008.2 0.0
28/08:00am 28.7 28.3 15.2 43 8.3 SE 11 19 6 10 1009.4 1008.1 0.0
28/07:30am 25.8 25.9 14.0 48 7.0 SSE 6 9 3 5 1009.0 1007.7 0.0
28/07:00am 24.1 24.6 12.7 49 6.6 SE 2 4 1 2 1008.8 1007.5 0.0
28/06:30am 24.2 24.3 12.8 49 6.6 SE 4 6 2 3 1008.5 1007.2 0.0
28/06:00am 24.1 23.6 12.7 49 6.6 ESE 7 9 4 5 1008.1 1006.8 0.0
28/05:30am 24.1 23.0 12.1 47 6.9 E 9 9 5 5 1007.9 1006.6 0.0
28/05:00am 25.3 24.9 12.5 45 7.5 ESE 6 6 3 3 1007.8 1006.5 0.0
28/04:30am 25.4 25.0 12.3 44 7.6 ESE 6 6 3 3 1007.8 1006.5 0.0
28/04:00am 25.6 25.6 12.4 43 7.7 ESE 4 4 2 2 1007.7 1006.4 0.0
28/03:30am 25.6 25.2 12.4 43 7.7 ESE 6 7 3 4 1007.8 1006.5 0.0
28/03:00am 25.5 24.8 12.0 43 7.8 ESE 7 9 4 5 1007.8 1006.5 0.0
28/02:30am 25.9 25.2 12.0 42 8.0 ESE 7 9 4 5 1007.8 1006.5 0.0
28/02:00am 26.4 25.2 11.7 40 8.5 ESE 9 9 5 5 1008.0 1006.7 0.0
28/01:30am 27.4 26.8 12.2 39 8.9 ESE 7 7 4 4 1008.1 1006.8 0.0
28/01:00am 27.7 27.0 12.1 38 9.1 ESE 7 9 4 5 1008.2 1006.9 0.0
28/12:30am 28.0 26.9 12.0 37 9.3 ESE 9 11 5 6 1008.2 1006.9 0.0
28/12:00am 28.6 27.5 12.1 36 9.7 ESE 9 11 5 6 1008.4 1007.1 0.0
 
Date/Time
EST
Temp
°C
App
Temp
°C
Dew
Point
°C
Rel
Hum
%
Delta-T
°C
Wind Press
QNH
hPa
Press
MSL
hPa
Rain since
9am
mm
Dir  Spd
km/h
Gust
km/h
Spd
kts
Gust
kts
27/11:30pm 29.1 27.9 11.6 33 10.2 ESE 9 11 5 6 1008.5 1007.2 0.0
27/11:00pm 30.2 29.9 12.6 34 10.5 E 6 11 3 6 1008.5 1007.2 0.0
27/10:30pm 29.3 28.7 11.8 34 10.2 SSW 6 7 3 4 1008.5 1007.2 0.0
27/10:00pm 30.8 30.2 11.7 31 11.2 SSE 6 7 3 4 1008.5 1007.2 0.0
27/09:30pm 32.0 31.5 12.8 31 11.5 SE 7 7 4 4 1008.4 1007.1 0.0
27/09:00pm 32.2 31.2 12.4 30 11.9 SE 9 9 5 5 1008.3 1007.0 0.0
27/08:30pm 33.2 32.0 12.8 29 12.3 SSE 11 13 6 7 1008.2 1006.9 0.0
27/08:00pm 33.5 32.7 13.0 29 12.4 SSE 9 11 5 6 1007.9 1006.6 0.0
27/07:30pm 34.3 33.6 13.2 28 12.9 SSE 9 11 5 6 1007.7 1006.4 0.0
27/07:00pm 35.7 33.9 13.2 26 13.8 SE 15 17 8 9 1007.5 1006.2 0.0
27/06:30pm 36.6 32.7 13.4 25 14.3 SE 26 33 14 18 1007.3 1006.0 0.0
27/06:00pm 37.6 34.0 12.9 23 15.2 SE 24 33 13 18 1006.9 1005.6 0.0
27/05:30pm 38.2 34.5 12.7 21 15.7 SSE 24 37 13 20 1006.6 1005.3 0.0
27/05:00pm 38.3 33.9 12.8 22 15.7 SE 28 39 15 21 1006.6 1005.3 0.0
27/04:34pm 39.2 34.5 12.1 20 16.6 SE 28 59 15 32 1006.3 1005.0 0.0
27/04:30pm 39.1 34.3 12.8 21 16.2 SE 30 41 16 22 1006.4 1005.1 0.0
27/04:12pm 38.0 33.1 12.6 22 15.6 ESE 30 50 16 27 1006.2 1004.9 0.0
27/04:00pm 39.1 33.7 12.8 21 16.3 SE 33 48 18 26 1006.4 1005.1 0.0
27/03:30pm 38.5 33.9 12.3 21 16.0 ESE 28 39 15 21 1006.5 1005.2 0.0
27/03:00pm 38.8 33.9 12.5 21 16.2 SSE 30 44 16 24 1006.6 1005.3 0.0
27/02:30pm 38.4 35.5 12.9 22 15.7 SE 20 35 11 19 1007.1 1005.8 0.0
27/02:00pm 38.0 34.3 12.6 22 15.6 SE 24 35 13 19 1007.6 1006.3 0.0
27/01:30pm 37.4 35.6 13.4 24 14.8 SSE 15 28 8 15 1008.2 1006.9 0.0
27/01:00pm 37.6 35.5 13.6 24 14.9 SE 17 28 9 15 1009.0 1007.7 0.0
27/12:30pm 37.0 34.4 13.1 24 14.7 ESE 19 35 10 19 1009.7 1008.4 0.0
27/12:00pm 35.7 33.5 13.2 26 13.8 E 17 30 9 16 1010.2 1008.9 0.0
27/11:30am 35.4 33.1 13.0 26 13.7 E 17 28 9 15 1010.9 1009.6 0.0
27/11:00am 35.1 33.8 14.9 29 12.7 E 15 24 8 13 1011.4 1010.1 0.0
27/10:30am 33.6 31.8 15.6 34 11.3 E 19 28 10 15 1011.8 1010.5 0.0
27/10:00am 33.5 32.6 15.9 34 11.1 E 15 26 8 14 1012.0 1010.7 0.0
27/09:30am 32.6 32.7 16.4 37 10.3 E 11 20 6 11 1012.2 1010.9 0.0
27/09:00am 30.9 30.4 16.9 43 8.9 ENE 15 22 8 12 1012.6 1011.3 0.0
27/08:30am 29.9 30.5 17.7 48 7.8 ESE 11 13 6 7 1012.7 1011.4 0.0
27/08:00am 28.0 28.8 17.2 52 6.8 ESE 9 13 5 7 1012.5 1011.2 0.0
27/07:30am 25.6 26.5 16.2 56 5.8 SE 6 9 3 5 1012.5 1011.2 0.0
27/07:00am 23.3 23.8 15.1 60 4.9 ESE 6 7 3 4 1012.0 1010.7 0.0
27/06:30am 23.1 23.7 15.2 61 4.8 ESE 6 6 3 3 1011.6 1010.3 0.0
27/06:00am 22.6 24.1 14.7 61 4.7 CALM 0 0 0 0 1011.2 1009.9 0.0
27/05:30am 22.6 23.8 13.7 57 5.2 CALM 0 0 0 0 1011.1 1009.8 0.0
27/05:00am 23.0 23.2 14.3 58 5.2 E 6 7 3 4 1010.8 1009.5 0.0
27/04:30am 23.5 23.2 14.5 57 5.4 E 9 11 5 6 1010.6 1009.3 0.0
27/04:00am 24.3 24.5 14.7 55 5.8 ESE 7 9 4 5 1010.3 1009.0 0.0
27/03:30am 24.4 24.4 14.2 53 6.1 E 7 7 4 4 1010.4 1009.2 0.0

Other Formats:

Comma delimited format used in spreadsheet applications
http://www.bom.gov.au/fwo/IDQ60801/IDQ60801.94342.axf

JavaScript Object Notation format (JSON) in row-major order
http://www.bom.gov.au/fwo/IDQ60801/IDQ60801.94342.json